createdAt,value
2022-11-28T00:01:22.200Z,16.95
2022-11-28T00:03:48.448Z,18.25
2022-11-28T00:06:14.847Z,18.00
2022-11-28T00:08:41.234Z,18.12
2022-11-28T00:11:07.475Z,18.49
2022-11-28T00:13:33.745Z,19.50
2022-11-28T00:16:00.061Z,19.43
2022-11-28T00:18:26.361Z,19.65
2022-11-28T00:20:52.602Z,18.27
2022-11-28T00:23:18.867Z,20.26
2022-11-28T00:25:45.132Z,20.34
2022-11-28T00:28:11.381Z,20.33
2022-11-28T00:30:37.641Z,19.64
2022-11-28T00:33:03.897Z,20.38
2022-11-28T00:35:30.145Z,20.47
2022-11-28T00:37:56.416Z,21.89
2022-11-28T00:40:22.658Z,21.24
2022-11-28T00:42:48.897Z,21.00
2022-11-28T00:45:15.142Z,22.05
2022-11-28T00:47:41.508Z,21.73
2022-11-28T00:50:07.793Z,21.18
2022-11-28T00:52:34.047Z,21.66
2022-11-28T00:55:00.308Z,22.43
2022-11-28T00:57:26.578Z,22.33
2022-11-28T00:59:52.836Z,22.35
2022-11-28T01:02:19.135Z,22.55
2022-11-28T01:04:45.431Z,21.88
2022-11-28T01:07:11.812Z,19.95
2022-11-28T01:09:38.155Z,18.63
2022-11-28T01:12:04.401Z,17.68
2022-11-28T01:14:30.639Z,16.86
2022-11-28T01:16:56.902Z,17.80
2022-11-28T01:19:23.146Z,19.25
2022-11-28T01:21:49.404Z,19.31
2022-11-28T01:24:15.737Z,19.44
2022-11-28T01:26:41.992Z,19.88
2022-11-28T01:29:08.292Z,20.48
2022-11-28T01:31:34.616Z,20.97
2022-11-28T01:34:00.894Z,19.69
2022-11-28T01:36:27.139Z,18.78
2022-11-28T01:38:53.384Z,19.02
2022-11-28T01:41:19.623Z,19.51
2022-11-28T01:43:45.884Z,18.63
2022-11-28T01:46:12.203Z,18.67
2022-11-28T01:48:38.480Z,19.12
2022-11-28T01:51:04.740Z,19.19
2022-11-28T01:53:30.989Z,19.36
2022-11-28T01:55:57.233Z,18.49
2022-11-28T01:58:23.492Z,18.39
2022-11-28T02:00:49.760Z,18.25
2022-11-28T02:03:16.030Z,17.87
2022-11-28T02:05:42.286Z,18.43
2022-11-28T02:08:08.528Z,18.27
2022-11-28T02:10:34.781Z,19.23
2022-11-28T02:13:01.040Z,19.13
2022-11-28T02:15:27.309Z,18.77
2022-11-28T02:17:53.572Z,18.16
2022-11-28T02:20:19.818Z,18.59
2022-11-28T02:22:46.065Z,18.81
2022-11-28T02:25:12.310Z,19.06
2022-11-28T02:27:38.568Z,19.22
2022-11-28T02:30:04.828Z,19.16
2022-11-28T02:32:31.113Z,20.37
2022-11-28T02:34:57.360Z,20.72
2022-11-28T02:37:23.607Z,18.81
2022-11-28T02:39:49.845Z,20.68
2022-11-28T02:42:16.102Z,19.48
2022-11-28T02:44:42.474Z,18.38
2022-11-28T02:47:08.831Z,19.30
2022-11-28T02:49:35.138Z,20.22
2022-11-28T02:52:01.373Z,19.96
2022-11-28T02:54:27.618Z,19.00
2022-11-28T02:56:53.874Z,19.08
2022-11-28T02:59:20.130Z,20.19
2022-11-28T03:01:46.412Z,19.52
2022-11-28T03:04:12.711Z,19.47
2022-11-28T03:06:38.964Z,19.03
2022-11-28T03:09:05.237Z,18.25
2022-11-28T03:11:31.496Z,18.91
2022-11-28T03:13:57.731Z,20.03
2022-11-28T03:16:24.068Z,20.20
2022-11-28T03:18:50.350Z,19.38
2022-11-28T03:21:16.639Z,20.22
2022-11-28T03:23:42.904Z,19.95
2022-11-28T03:26:09.165Z,19.78
2022-11-28T03:28:38.182Z,20.33
2022-11-28T03:31:08.500Z,19.78
2022-11-28T03:33:34.807Z,19.56
2022-11-28T03:36:01.058Z,24.73
2022-11-28T03:38:27.317Z,25.63
2022-11-28T03:40:53.577Z,23.41
2022-11-28T03:43:19.830Z,21.63
2022-11-28T03:45:46.094Z,20.84
2022-11-28T03:48:12.330Z,19.76
2022-11-28T03:50:38.597Z,19.53
2022-11-28T03:53:04.942Z,17.18
2022-11-28T03:55:31.259Z,17.25
2022-11-28T03:57:57.541Z,17.53
2022-11-28T04:00:23.805Z,17.25
2022-11-28T04:02:50.130Z,17.56
2022-11-28T04:05:16.426Z,16.73
2022-11-28T04:07:42.719Z,15.15
2022-11-28T04:10:09.060Z,14.88
2022-11-28T04:12:35.316Z,14.48
2022-11-28T04:15:01.559Z,14.39
2022-11-28T04:17:27.802Z,14.04
2022-11-28T04:19:54.050Z,13.85
2022-11-28T04:22:20.300Z,13.86
2022-11-28T04:24:46.541Z,16.07
2022-11-28T04:27:12.779Z,16.19
2022-11-28T04:29:39.038Z,16.09
2022-11-28T04:32:05.329Z,15.39
2022-11-28T04:34:31.630Z,16.11
2022-11-28T04:36:57.878Z,16.30
2022-11-28T04:39:24.113Z,16.32
2022-11-28T04:41:50.370Z,16.22
2022-11-28T04:44:16.623Z,15.55
2022-11-28T04:46:42.869Z,14.30
2022-11-28T04:49:09.106Z,14.60
2022-11-28T04:51:35.369Z,14.70
2022-11-28T04:54:01.636Z,13.76
2022-11-28T04:56:27.884Z,13.04
2022-11-28T04:58:54.135Z,13.39
2022-11-28T05:01:20.476Z,12.64
2022-11-28T05:03:46.786Z,12.57
2022-11-28T05:06:13.026Z,12.78
2022-11-28T05:08:39.287Z,12.59
2022-11-28T05:11:05.521Z,11.64
2022-11-28T05:13:31.754Z,11.73
2022-11-28T05:15:58.094Z,11.38
2022-11-28T05:18:24.360Z,11.03
2022-11-28T05:20:50.595Z,11.10
2022-11-28T05:23:16.835Z,11.05
2022-11-28T05:25:43.069Z,11.28
2022-11-28T05:28:09.313Z,10.55
2022-11-28T05:30:35.556Z,10.34
2022-11-28T05:33:01.785Z,10.98
2022-11-28T05:35:28.036Z,12.22
2022-11-28T05:37:54.284Z,11.67
2022-11-28T05:40:20.521Z,11.77
2022-11-28T05:42:46.783Z,12.59
2022-11-28T05:45:13.029Z,13.12
2022-11-28T05:47:39.313Z,12.65
2022-11-28T05:50:05.593Z,12.23
2022-11-28T05:52:31.854Z,12.20
2022-11-28T05:54:58.089Z,11.64
2022-11-28T05:57:24.329Z,11.87
2022-11-28T05:59:50.583Z,11.51
2022-11-28T06:02:16.874Z,11.89
2022-11-28T06:04:43.283Z,12.43
2022-11-28T06:07:09.579Z,12.91
2022-11-28T06:09:35.824Z,13.30
2022-11-28T06:12:02.081Z,13.44
2022-11-28T06:14:28.323Z,14.23
2022-11-28T06:16:54.674Z,14.08
2022-11-28T06:19:20.987Z,14.93
2022-11-28T06:21:47.297Z,14.43
2022-11-28T06:24:13.544Z,14.48
2022-11-28T06:26:39.777Z,14.60
2022-11-28T06:29:06.042Z,14.02
2022-11-28T06:31:32.342Z,14.16
2022-11-28T06:33:58.661Z,13.42
2022-11-28T06:36:24.902Z,14.02
2022-11-28T06:38:51.153Z,13.51
2022-11-28T06:41:17.415Z,13.78
2022-11-28T06:43:43.678Z,10.31
2022-11-28T06:46:13.145Z,9.35
2022-11-28T06:48:42.098Z,10.85
2022-11-28T06:51:08.334Z,11.65
2022-11-28T06:53:34.589Z,12.45
2022-11-28T06:56:00.826Z,12.98
2022-11-28T06:58:27.096Z,13.37
2022-11-28T07:00:53.415Z,12.69
2022-11-28T07:03:19.706Z,12.45
2022-11-28T07:05:45.966Z,12.41
2022-11-28T07:08:12.272Z,11.82
2022-11-28T07:10:38.634Z,12.79
2022-11-28T07:13:05.713Z,13.27
2022-11-28T07:15:32.120Z,13.02
2022-11-28T07:17:58.369Z,13.11
2022-11-28T07:20:24.624Z,12.56
2022-11-28T07:22:51.948Z,14.47
2022-11-28T07:25:18.218Z,14.62
2022-11-28T07:27:44.460Z,14.97
2022-11-28T07:30:10.729Z,15.80
2022-11-28T07:32:36.982Z,14.95
2022-11-28T07:35:03.225Z,14.48
2022-11-28T07:37:29.589Z,14.46
2022-11-28T07:39:55.845Z,13.66
2022-11-28T07:42:22.109Z,14.10
2022-11-28T07:44:48.363Z,14.10
2022-11-28T07:47:14.621Z,13.50
2022-11-28T07:49:41.213Z,13.17
2022-11-28T07:52:07.649Z,12.59
2022-11-28T07:54:33.886Z,12.10
2022-11-28T07:57:15.393Z,10.97
2022-11-28T07:59:41.900Z,9.94
2022-11-28T08:02:08.391Z,9.38
2022-11-28T08:04:34.716Z,9.11
2022-11-28T08:07:01.072Z,8.41
2022-11-28T08:09:27.325Z,8.20
2022-11-28T08:11:53.549Z,8.94
2022-11-28T08:14:19.791Z,8.62
2022-11-28T08:16:46.118Z,8.53
2022-11-28T08:19:12.435Z,7.58
2022-11-28T08:21:38.686Z,6.80
2022-11-28T08:24:04.930Z,6.18
2022-11-28T08:26:31.343Z,5.70
2022-11-28T08:28:57.628Z,6.04
2022-11-28T08:31:23.899Z,6.06
2022-11-28T08:33:50.153Z,6.38
2022-11-28T08:36:16.406Z,6.70
2022-11-28T08:38:47.001Z,7.22
2022-11-28T08:41:19.775Z,6.89
2022-11-28T08:43:46.034Z,6.48
2022-11-28T08:46:12.326Z,6.63
2022-11-28T08:48:38.609Z,5.93
2022-11-28T08:51:04.837Z,5.46
2022-11-28T08:53:31.081Z,5.14
2022-11-28T08:55:57.323Z,4.87
2022-11-28T08:58:23.575Z,4.24
2022-11-28T09:00:49.919Z,3.96
2022-11-28T09:03:16.256Z,3.69
2022-11-28T09:05:42.503Z,3.59
2022-11-28T09:08:11.588Z,3.37
2022-11-28T09:10:38.185Z,2.93
2022-11-28T09:13:04.418Z,2.94
2022-11-28T09:15:30.668Z,2.81
2022-11-28T09:17:56.900Z,2.91
2022-11-28T09:20:23.155Z,2.61
2022-11-28T09:22:49.401Z,2.61
2022-11-28T09:25:15.645Z,2.73
2022-11-28T09:27:41.883Z,2.67
2022-11-28T09:30:08.125Z,2.69
2022-11-28T09:32:34.377Z,2.47
2022-11-28T09:35:00.628Z,2.43
2022-11-28T09:37:26.884Z,2.50
2022-11-28T09:40:12.123Z,2.47
2022-11-28T09:42:39.175Z,2.58
2022-11-28T09:45:05.430Z,2.38
2022-11-28T09:47:31.667Z,2.36
2022-11-28T09:49:57.918Z,2.28
2022-11-28T09:52:24.210Z,2.28
2022-11-28T09:54:50.464Z,2.08
2022-11-28T09:57:16.702Z,2.19
2022-11-28T09:59:43.082Z,2.05
2022-11-28T10:02:09.461Z,2.09
2022-11-28T10:04:35.787Z,2.12
2022-11-28T10:07:02.109Z,2.21
2022-11-28T10:09:28.340Z,2.32
2022-11-28T10:11:54.577Z,2.16
2022-11-28T10:14:20.819Z,2.05
2022-11-28T10:16:47.200Z,1.98
2022-11-28T10:19:31.572Z,1.81
2022-11-28T10:21:59.582Z,2.01
2022-11-28T10:24:25.894Z,2.07
2022-11-28T10:26:52.137Z,1.97
2022-11-28T10:29:18.409Z,2.02
2022-11-28T10:31:44.668Z,2.22
2022-11-28T10:34:10.924Z,2.12
2022-11-28T10:36:37.177Z,2.05
2022-11-28T10:39:06.228Z,2.01
2022-11-28T10:41:36.118Z,2.22
2022-11-28T10:44:02.372Z,2.09
2022-11-28T10:46:28.619Z,2.24
2022-11-28T10:48:54.924Z,2.21
2022-11-28T10:51:21.152Z,2.29
2022-11-28T10:53:47.381Z,2.06
2022-11-28T10:56:13.635Z,1.92
2022-11-28T10:58:39.890Z,2.07
2022-11-28T11:01:06.198Z,2.13
2022-11-28T11:03:32.457Z,2.09
2022-11-28T11:05:58.712Z,2.09
2022-11-28T11:08:25.068Z,2.29
2022-11-28T11:10:51.416Z,2.23
2022-11-28T11:13:17.684Z,2.12
2022-11-28T11:15:43.933Z,2.23
2022-11-28T11:18:10.221Z,2.39
2022-11-28T11:20:36.474Z,2.65
2022-11-28T11:23:02.739Z,2.62
2022-11-28T11:25:28.973Z,2.58
2022-11-28T11:27:55.211Z,2.52
2022-11-28T11:30:21.446Z,2.64
2022-11-28T11:32:51.362Z,2.80
2022-11-28T11:35:18.029Z,2.66
2022-11-28T11:37:44.276Z,2.54
2022-11-28T11:40:10.521Z,2.53
2022-11-28T11:42:36.764Z,2.66
2022-11-28T11:45:03.002Z,2.48
2022-11-28T11:47:29.236Z,2.73
2022-11-28T11:49:55.472Z,2.60
2022-11-28T11:52:21.699Z,2.71
2022-11-28T11:54:47.950Z,2.38
2022-11-28T12:00:00.417Z,2.58
2022-11-28T12:02:26.691Z,2.94
2022-11-28T12:04:55.523Z,2.78
2022-11-28T12:07:22.179Z,2.82
2022-11-28T12:09:48.486Z,3.00
2022-11-28T12:12:14.725Z,2.82
2022-11-28T12:14:40.977Z,3.11
2022-11-28T12:17:25.570Z,3.12
2022-11-28T12:19:53.438Z,3.12
2022-11-28T12:22:19.696Z,3.21
2022-11-28T12:24:46.431Z,3.30
2022-11-28T12:27:13.050Z,3.42
2022-11-28T12:29:39.304Z,3.36
2022-11-28T12:32:05.535Z,3.32
2022-11-28T12:34:31.789Z,3.41
2022-11-28T12:36:58.050Z,3.16
2022-11-28T12:39:24.282Z,3.16
2022-11-28T12:41:50.514Z,3.44
2022-11-28T12:44:16.762Z,3.53
2022-11-28T12:46:43.036Z,3.52
2022-11-28T12:49:09.312Z,3.34
2022-11-28T12:51:35.564Z,3.66
2022-11-28T12:54:01.842Z,3.56
2022-11-28T12:56:28.147Z,3.36
2022-11-28T12:58:54.403Z,3.37
2022-11-28T13:01:20.720Z,3.47
2022-11-28T13:03:47.021Z,3.57
2022-11-28T13:06:13.271Z,3.32
2022-11-28T13:08:44.770Z,3.42
2022-11-28T13:11:14.347Z,3.17
2022-11-28T13:13:40.592Z,3.32
2022-11-28T13:16:06.845Z,3.31
2022-11-28T13:18:33.150Z,3.05
2022-11-28T13:20:59.404Z,3.14
2022-11-28T13:23:25.680Z,3.22
2022-11-28T13:25:51.922Z,3.22
2022-11-28T13:28:18.156Z,3.22
2022-11-28T13:30:44.394Z,3.32
2022-11-28T13:33:10.628Z,3.28
2022-11-28T13:35:37.015Z,3.19
2022-11-28T13:40:49.515Z,3.06
2022-11-28T13:43:15.769Z,3.13
2022-11-28T13:45:42.009Z,2.84
2022-11-28T13:48:08.257Z,2.94
2022-11-28T13:50:34.491Z,2.97
2022-11-28T13:53:00.809Z,3.10
2022-11-28T13:55:27.062Z,3.14
2022-11-28T13:57:53.370Z,2.86
2022-11-28T14:00:19.629Z,2.76
2022-11-28T14:02:45.914Z,3.34
2022-11-28T14:05:12.198Z,3.21
2022-11-28T14:07:38.526Z,2.94
2022-11-28T14:10:04.781Z,3.01
2022-11-28T14:12:31.033Z,2.79
2022-11-28T14:14:57.306Z,2.84
2022-11-28T14:17:23.544Z,3.02
2022-11-28T14:19:49.775Z,2.93
2022-11-28T14:22:16.025Z,2.76
2022-11-28T14:24:42.845Z,2.71
2022-11-28T14:27:09.338Z,2.59
2022-11-28T14:29:35.602Z,2.87
2022-11-28T14:32:31.947Z,2.69
2022-11-28T14:34:48.324Z,2.64
2022-11-28T14:37:14.654Z,2.80
2022-11-28T14:39:40.896Z,2.76
2022-11-28T14:42:07.159Z,2.66
2022-11-28T14:44:33.407Z,2.70
2022-11-28T14:46:59.752Z,2.86
2022-11-28T14:49:26.029Z,2.84
2022-11-28T14:52:09.907Z,2.53
2022-11-28T14:54:38.485Z,2.62
2022-11-28T14:57:04.716Z,2.96
2022-11-28T14:59:30.974Z,2.93
2022-11-28T15:01:57.255Z,2.66
2022-11-28T15:04:23.529Z,3.00
2022-11-28T15:06:49.789Z,3.11
2022-11-28T15:09:16.018Z,2.83
2022-11-28T15:11:42.257Z,3.11
2022-11-28T15:14:08.512Z,3.01
2022-11-28T15:16:34.837Z,3.19
2022-11-28T15:19:01.129Z,3.27
2022-11-28T15:21:27.383Z,3.41
2022-11-28T15:23:53.641Z,3.30
2022-11-28T15:26:19.891Z,3.35
2022-11-28T15:28:46.141Z,3.43
2022-11-28T15:31:12.425Z,3.37
2022-11-28T15:33:38.714Z,3.07
2022-11-28T15:36:04.973Z,3.38
2022-11-28T15:38:31.211Z,3.44
2022-11-28T15:40:57.451Z,3.37
2022-11-28T15:43:23.681Z,3.43
2022-11-28T15:45:49.921Z,3.29
2022-11-28T15:48:16.250Z,3.53
2022-11-28T15:50:42.489Z,3.40
2022-11-28T15:53:08.744Z,3.47
2022-11-28T15:55:35.001Z,3.35
2022-11-28T15:58:01.435Z,3.63
2022-11-28T16:00:27.676Z,3.48
2022-11-28T16:02:53.922Z,3.58
2022-11-28T16:05:20.166Z,3.59
2022-11-28T16:07:46.442Z,3.79
2022-11-28T16:10:12.709Z,3.83
2022-11-28T16:12:39.049Z,3.64
2022-11-28T16:15:05.356Z,3.90
2022-11-28T16:17:31.600Z,3.95
2022-11-28T16:19:57.844Z,4.03
2022-11-28T16:22:24.078Z,3.79
2022-11-28T16:24:50.308Z,4.07
2022-11-28T16:27:16.554Z,4.03
2022-11-28T16:29:42.818Z,4.42
2022-11-28T16:32:09.070Z,4.38
2022-11-28T16:34:35.301Z,4.17
2022-11-28T16:37:01.548Z,4.23
2022-11-28T16:39:30.352Z,4.39
2022-11-28T16:41:58.782Z,4.98
2022-11-28T16:44:25.017Z,4.94
2022-11-28T16:46:51.250Z,5.11
2022-11-28T16:49:17.501Z,5.23
2022-11-28T16:51:43.745Z,5.53
2022-11-28T16:54:09.976Z,5.58
2022-11-28T16:56:36.210Z,5.61
2022-11-28T16:59:02.459Z,5.95
2022-11-28T17:01:28.709Z,5.82
2022-11-28T17:03:54.994Z,5.96
2022-11-28T17:06:21.249Z,6.24
2022-11-28T17:08:47.501Z,5.89
2022-11-28T17:11:13.748Z,6.48
2022-11-28T17:13:39.987Z,6.48
2022-11-28T17:16:06.323Z,6.87
2022-11-28T17:18:32.614Z,6.60
2022-11-28T17:20:58.873Z,6.42
2022-11-28T17:23:25.117Z,6.66
2022-11-28T17:25:51.353Z,6.01
2022-11-28T17:28:22.296Z,5.92
2022-11-28T17:30:50.472Z,6.06
2022-11-28T17:33:16.707Z,6.06
2022-11-28T17:35:42.955Z,6.34
2022-11-28T17:38:09.197Z,6.27
2022-11-28T17:40:35.441Z,6.63
2022-11-28T17:43:01.680Z,6.51
2022-11-28T17:45:27.946Z,6.36
2022-11-28T17:47:54.194Z,6.16
2022-11-28T17:50:20.448Z,6.28
2022-11-28T17:52:46.701Z,6.59
2022-11-28T17:55:12.938Z,6.48
2022-11-28T17:57:39.194Z,7.02
2022-11-28T18:00:05.442Z,7.07
2022-11-28T18:02:31.709Z,8.87
2022-11-28T18:04:57.973Z,9.87
2022-11-28T18:07:24.274Z,7.48
2022-11-28T18:09:50.569Z,7.82
2022-11-28T18:12:16.807Z,9.00
2022-11-28T18:14:43.049Z,15.65
2022-11-28T18:17:09.299Z,27.58
2022-11-28T18:19:35.540Z,14.35
2022-11-28T18:22:01.814Z,11.56
2022-11-28T18:24:28.053Z,16.63
2022-11-28T18:26:54.309Z,15.06
2022-11-28T18:29:20.569Z,14.13
2022-11-28T18:31:47.011Z,16.78
2022-11-28T18:34:13.292Z,11.97
2022-11-28T18:36:39.542Z,13.43
2022-11-28T18:39:05.779Z,13.26
2022-11-28T18:41:32.036Z,14.80
2022-11-28T18:43:58.276Z,12.74
2022-11-28T18:46:24.536Z,12.42
2022-11-28T18:48:50.789Z,11.14
2022-11-28T18:51:17.053Z,22.82
2022-11-28T18:53:43.294Z,11.25
2022-11-28T18:56:09.536Z,8.57
2022-11-28T18:58:35.799Z,7.67
2022-11-28T19:01:02.092Z,8.42
2022-11-28T19:03:28.338Z,8.14
2022-11-28T19:05:54.581Z,9.09
2022-11-28T19:08:20.836Z,12.32
2022-11-28T19:10:47.066Z,7.12
2022-11-28T19:13:13.300Z,9.06
2022-11-28T19:15:39.543Z,8.92
2022-11-28T19:18:05.782Z,12.94
2022-11-28T19:20:32.023Z,12.64
2022-11-28T19:22:58.267Z,9.26
2022-11-28T19:25:24.524Z,10.57
2022-11-28T19:27:50.778Z,7.74
2022-11-28T19:30:17.006Z,8.37
2022-11-28T19:32:43.239Z,7.23
2022-11-28T19:35:09.482Z,6.10
2022-11-28T19:37:35.710Z,6.41
2022-11-28T19:40:03.047Z,7.74
2022-11-28T19:42:29.458Z,8.64
2022-11-28T19:44:55.694Z,6.56
2022-11-28T19:47:21.941Z,6.35
2022-11-28T19:49:48.183Z,6.28
2022-11-28T19:52:14.432Z,6.90
2022-11-28T19:54:40.747Z,8.67
2022-11-28T19:57:07.057Z,17.15
2022-11-28T19:59:33.321Z,21.24
2022-11-28T20:01:59.595Z,11.36
2022-11-28T20:04:25.849Z,8.37
2022-11-28T20:06:52.101Z,7.78
2022-11-28T20:09:18.367Z,13.79
2022-11-28T20:11:44.633Z,17.57
2022-11-28T20:14:10.869Z,16.36
2022-11-28T20:16:37.202Z,12.24
2022-11-28T20:19:03.518Z,10.48
2022-11-28T20:21:29.759Z,7.73
2022-11-28T20:23:56.952Z,8.73
2022-11-28T20:26:23.290Z,7.96
2022-11-28T20:28:49.519Z,8.39
2022-11-28T20:31:15.845Z,10.19
2022-11-28T20:33:42.162Z,14.48
2022-11-28T20:36:08.414Z,13.32
2022-11-28T20:38:34.672Z,12.20
2022-11-28T20:41:00.930Z,15.45
2022-11-28T20:43:27.196Z,20.80
2022-11-28T20:45:53.493Z,17.13
2022-11-28T20:48:19.792Z,9.15
2022-11-28T20:50:46.041Z,11.60
2022-11-28T20:53:12.309Z,22.88
2022-11-28T20:55:38.561Z,16.11
2022-11-28T20:58:04.800Z,7.79
2022-11-28T21:00:31.029Z,8.41
2022-11-28T21:02:57.285Z,9.42
2022-11-28T21:05:23.533Z,6.40
2022-11-28T21:07:49.809Z,6.26
2022-11-28T21:10:16.169Z,6.41
2022-11-28T21:12:42.416Z,9.00
2022-11-28T21:15:08.664Z,11.07
2022-11-28T21:17:34.922Z,9.89
2022-11-28T21:20:01.176Z,17.11
2022-11-28T21:22:27.423Z,25.92
2022-11-28T21:24:53.681Z,15.65
2022-11-28T21:27:19.922Z,13.75
2022-11-28T21:29:46.534Z,16.54
2022-11-28T21:32:12.968Z,18.05
2022-11-28T21:34:39.222Z,12.07
2022-11-28T21:37:05.480Z,8.15
2022-11-28T21:39:31.718Z,10.73
2022-11-28T21:41:57.972Z,25.13
2022-11-28T21:44:24.213Z,18.14
2022-11-28T21:46:50.478Z,19.25
2022-11-28T21:49:16.730Z,16.17
2022-11-28T21:51:42.984Z,10.97
2022-11-28T21:54:09.229Z,9.42
2022-11-28T21:56:35.460Z,9.08
2022-11-28T21:59:01.695Z,8.21
2022-11-28T22:01:27.967Z,6.59
2022-11-28T22:03:59.044Z,5.76
2022-11-28T22:06:28.273Z,6.01
2022-11-28T22:08:54.528Z,5.56
2022-11-28T22:11:20.786Z,5.24
2022-11-28T22:13:47.045Z,4.63
2022-11-28T22:16:13.352Z,4.53
2022-11-28T22:18:39.640Z,4.72
2022-11-28T22:21:22.532Z,4.20
2022-11-28T22:23:52.099Z,4.48
2022-11-28T22:26:18.349Z,5.04
2022-11-28T22:28:47.863Z,7.21
2022-11-28T22:31:19.458Z,11.07
2022-11-28T22:33:45.744Z,12.04
2022-11-28T22:36:11.979Z,7.05
2022-11-28T22:38:38.241Z,6.61
2022-11-28T22:41:04.511Z,9.02
2022-11-28T22:43:30.743Z,9.09
2022-11-28T22:45:57.016Z,12.89
2022-11-28T22:48:23.321Z,18.04
2022-11-28T22:50:49.590Z,17.37
2022-11-28T22:53:15.858Z,15.89
2022-11-28T22:55:42.101Z,25.26
2022-11-28T22:58:08.345Z,21.31
2022-11-28T23:00:34.589Z,34.77
2022-11-28T23:03:00.965Z,35.70
2022-11-28T23:05:27.303Z,37.09
2022-11-28T23:07:53.618Z,32.91
2022-11-28T23:10:19.893Z,16.53
2022-11-28T23:12:46.133Z,10.59
2022-11-28T23:15:12.391Z,6.34
2022-11-28T23:17:38.644Z,6.79
2022-11-28T23:20:04.898Z,11.50
2022-11-28T23:22:31.168Z,19.71
2022-11-28T23:24:57.433Z,17.84
2022-11-28T23:27:23.696Z,15.36
2022-11-28T23:29:49.938Z,8.49
2022-11-28T23:32:16.188Z,6.16
2022-11-28T23:34:42.766Z,5.22
2022-11-28T23:37:09.218Z,4.81
2022-11-28T23:39:35.462Z,6.49
2022-11-28T23:42:01.693Z,8.13
2022-11-28T23:44:27.922Z,6.04
2022-11-28T23:46:54.157Z,5.25
2022-11-28T23:49:20.404Z,4.90
2022-11-28T23:51:46.641Z,5.18
2022-11-28T23:54:12.930Z,4.90
2022-11-28T23:56:39.181Z,4.82
2022-11-28T23:59:05.446Z,5.31
